createdAt,value
2018-03-06T00:00:05.634Z,0.00
2018-03-06T00:01:05.505Z,0.00
2018-03-06T00:02:05.376Z,0.00
2018-03-06T00:03:05.242Z,0.00
2018-03-06T00:04:05.115Z,0.00
2018-03-06T00:05:04.986Z,0.00
2018-03-06T00:06:04.848Z,0.00
2018-03-06T00:07:04.721Z,0.00
2018-03-06T00:08:04.591Z,0.00
2018-03-06T00:09:04.460Z,0.00
2018-03-06T00:10:04.329Z,0.00
2018-03-06T00:11:04.205Z,0.00
2018-03-06T00:12:04.074Z,0.00
2018-03-06T00:13:03.937Z,0.00
2018-03-06T00:14:03.810Z,0.00
2018-03-06T00:15:03.676Z,0.00
2018-03-06T00:16:03.549Z,0.00
2018-03-06T00:17:03.415Z,0.00
2018-03-06T00:18:03.287Z,0.00
2018-03-06T00:19:03.158Z,0.00
2018-03-06T00:20:03.025Z,0.00
2018-03-06T00:21:02.896Z,0.00
2018-03-06T00:22:02.766Z,0.00
2018-03-06T00:23:02.636Z,0.00
2018-03-06T00:24:02.506Z,0.00
2018-03-06T00:25:02.375Z,0.00
2018-03-06T00:26:02.245Z,0.00
2018-03-06T00:27:02.117Z,0.00
2018-03-06T00:28:01.986Z,0.00
2018-03-06T00:29:01.861Z,0.00
2018-03-06T00:30:01.726Z,0.00
2018-03-06T00:31:01.599Z,0.00
2018-03-06T00:32:01.465Z,0.00
2018-03-06T00:33:01.339Z,0.00
2018-03-06T00:34:01.206Z,0.00
2018-03-06T00:35:01.079Z,0.00
2018-03-06T00:36:00.948Z,0.00
2018-03-06T00:37:00.817Z,0.00
2018-03-06T00:38:00.686Z,0.00
2018-03-06T00:39:00.603Z,0.00
2018-03-06T00:40:00.427Z,0.00
2018-03-06T00:41:00.297Z,0.00
2018-03-06T00:42:00.169Z,0.00
2018-03-06T00:43:00.037Z,0.00
2018-03-06T00:43:59.908Z,0.00
2018-03-06T00:44:59.777Z,0.00
2018-03-06T00:45:59.648Z,0.00
2018-03-06T00:46:59.517Z,0.00
2018-03-06T00:47:59.391Z,0.00
2018-03-06T00:48:59.259Z,0.00
2018-03-06T00:49:59.129Z,0.00
2018-03-06T00:50:58.998Z,0.00
2018-03-06T00:51:58.873Z,0.00
2018-03-06T00:52:58.738Z,0.00
2018-03-06T00:53:58.607Z,0.00
2018-03-06T00:54:58.477Z,0.00
2018-03-06T00:55:58.349Z,0.00
2018-03-06T00:56:58.217Z,0.00
2018-03-06T00:57:58.088Z,0.00
2018-03-06T00:58:57.957Z,0.00
2018-03-06T00:59:57.827Z,0.00
2018-03-06T01:00:57.697Z,0.00
2018-03-06T01:01:57.570Z,0.00
2018-03-06T01:02:57.439Z,0.00
2018-03-06T01:03:57.306Z,0.00
2018-03-06T01:04:57.175Z,0.00
2018-03-06T01:05:57.046Z,0.00
2018-03-06T01:06:56.917Z,0.00
2018-03-06T01:07:56.787Z,0.00
2018-03-06T01:08:56.656Z,0.00
2018-03-06T01:09:56.529Z,0.00
2018-03-06T01:10:56.396Z,0.00
2018-03-06T01:11:56.267Z,0.00
2018-03-06T01:12:56.135Z,0.00
2018-03-06T01:13:56.005Z,0.00
2018-03-06T01:14:55.887Z,0.00
2018-03-06T01:15:55.744Z,0.00
2018-03-06T01:16:55.615Z,0.00
2018-03-06T01:17:55.489Z,0.00
2018-03-06T01:18:55.357Z,0.00
2018-03-06T01:19:55.224Z,0.00
2018-03-06T01:20:55.095Z,0.00
2018-03-06T01:21:54.968Z,0.00
2018-03-06T01:22:54.835Z,0.00
2018-03-06T01:23:54.705Z,0.00
2018-03-06T01:24:54.594Z,0.00
2018-03-06T01:25:54.443Z,0.00
2018-03-06T01:26:54.313Z,0.00
2018-03-06T01:27:54.186Z,0.00
2018-03-06T01:28:54.055Z,0.00
2018-03-06T01:29:53.925Z,0.00
2018-03-06T01:30:53.794Z,0.00
2018-03-06T01:31:53.665Z,0.00
2018-03-06T01:32:53.534Z,0.00
2018-03-06T01:33:53.409Z,0.00
2018-03-06T01:34:53.274Z,0.00
2018-03-06T01:35:53.146Z,0.00
2018-03-06T01:36:53.016Z,0.00
2018-03-06T01:37:52.885Z,0.00
2018-03-06T01:38:52.754Z,0.00
2018-03-06T01:39:52.625Z,0.00
2018-03-06T01:40:52.496Z,0.00
2018-03-06T01:41:52.369Z,0.00
2018-03-06T01:42:52.235Z,0.00
2018-03-06T01:43:52.106Z,0.00
2018-03-06T01:44:51.976Z,0.00
2018-03-06T01:45:51.850Z,0.00
2018-03-06T01:46:51.718Z,0.00
2018-03-06T01:47:51.586Z,0.00
2018-03-06T01:48:51.453Z,0.00
2018-03-06T01:49:51.332Z,0.00
2018-03-06T01:50:51.195Z,0.00
2018-03-06T01:51:51.065Z,0.00
2018-03-06T01:52:50.937Z,0.00
2018-03-06T01:53:50.806Z,0.00
2018-03-06T01:54:50.676Z,0.00
2018-03-06T01:55:50.545Z,0.00
2018-03-06T01:56:50.415Z,0.00
2018-03-06T01:57:50.285Z,0.00
2018-03-06T01:58:50.157Z,0.00
2018-03-06T01:59:50.028Z,0.00
2018-03-06T02:00:49.894Z,0.00
2018-03-06T02:01:49.769Z,0.00
2018-03-06T02:02:49.642Z,0.00
2018-03-06T02:03:49.511Z,0.00
2018-03-06T02:04:49.376Z,0.00
2018-03-06T02:05:49.251Z,0.00
2018-03-06T02:06:49.117Z,0.00
2018-03-06T02:07:48.988Z,0.00
2018-03-06T02:08:48.860Z,0.00
2018-03-06T02:09:48.727Z,0.00
2018-03-06T02:10:48.597Z,0.00
2018-03-06T02:11:48.468Z,0.00
2018-03-06T02:12:48.340Z,0.00
2018-03-06T02:13:48.208Z,0.00
2018-03-06T02:14:48.081Z,0.00
2018-03-06T02:15:47.949Z,0.00
2018-03-06T02:16:47.819Z,0.00
2018-03-06T02:17:47.693Z,0.00
2018-03-06T02:18:47.561Z,0.00
2018-03-06T02:19:47.429Z,0.00
2018-03-06T02:20:47.299Z,0.00
2018-03-06T02:21:47.171Z,0.00
2018-03-06T02:22:47.041Z,0.00
2018-03-06T02:23:46.914Z,0.00
2018-03-06T02:24:46.782Z,0.00
2018-03-06T02:25:46.652Z,0.00
2018-03-06T02:26:46.521Z,0.00
2018-03-06T02:27:46.388Z,0.00
2018-03-06T02:28:46.265Z,0.00
2018-03-06T02:29:46.133Z,0.00
2018-03-06T02:30:46.002Z,0.00
2018-03-06T02:31:45.870Z,0.00
2018-03-06T02:32:45.740Z,0.00
2018-03-06T02:33:45.613Z,0.00
2018-03-06T02:34:45.486Z,0.00
2018-03-06T02:35:45.358Z,0.00
2018-03-06T02:36:45.219Z,0.00
2018-03-06T02:37:45.093Z,0.00
2018-03-06T02:38:44.964Z,0.00
2018-03-06T02:39:44.830Z,0.00
2018-03-06T02:40:44.699Z,0.00
2018-03-06T02:41:44.576Z,0.00
2018-03-06T02:42:44.439Z,0.00
2018-03-06T02:43:44.314Z,0.00
2018-03-06T02:44:44.188Z,0.00
2018-03-06T02:45:44.050Z,0.00
2018-03-06T02:46:43.920Z,0.00
2018-03-06T02:47:43.795Z,0.00
2018-03-06T02:48:43.662Z,0.00
2018-03-06T02:49:43.531Z,0.00
2018-03-06T02:50:43.401Z,0.00
2018-03-06T02:51:43.273Z,0.00
2018-03-06T02:52:43.142Z,0.00
2018-03-06T02:53:43.014Z,0.00
2018-03-06T02:54:42.881Z,0.00
2018-03-06T02:55:42.752Z,0.00
2018-03-06T02:56:42.626Z,0.00
2018-03-06T02:57:42.490Z,0.00
2018-03-06T02:58:42.364Z,0.00
2018-03-06T02:59:42.233Z,0.00
2018-03-06T03:00:42.103Z,0.00
2018-03-06T03:01:41.971Z,0.00
2018-03-06T03:02:41.852Z,0.00
2018-03-06T03:03:41.713Z,0.00
2018-03-06T03:04:41.584Z,0.00
2018-03-06T03:05:41.455Z,0.00
2018-03-06T03:06:41.322Z,0.00
2018-03-06T03:07:41.193Z,0.00
2018-03-06T03:08:41.071Z,0.00
2018-03-06T03:09:40.934Z,0.00
2018-03-06T03:10:40.802Z,0.00
2018-03-06T03:11:40.673Z,0.00
2018-03-06T03:12:40.545Z,0.00
2018-03-06T03:13:40.413Z,0.00
2018-03-06T03:14:40.282Z,0.00
2018-03-06T03:15:40.153Z,0.00
2018-03-06T03:16:40.024Z,0.00
2018-03-06T03:17:39.894Z,0.00
2018-03-06T03:18:39.766Z,0.00
2018-03-06T03:19:39.633Z,0.00
2018-03-06T03:20:39.505Z,0.00
2018-03-06T03:21:39.374Z,0.00
2018-03-06T03:22:39.245Z,0.00
2018-03-06T03:23:39.114Z,0.00
2018-03-06T03:24:38.989Z,0.00
2018-03-06T03:25:38.853Z,0.00
2018-03-06T03:26:38.728Z,0.00
2018-03-06T03:27:38.598Z,0.00
2018-03-06T03:28:38.464Z,0.00
2018-03-06T03:29:38.334Z,0.00
2018-03-06T03:30:38.208Z,0.00
2018-03-06T03:31:38.076Z,0.00
2018-03-06T03:32:37.946Z,0.00
2018-03-06T03:33:37.815Z,0.00
2018-03-06T03:34:37.686Z,0.00
2018-03-06T03:35:37.555Z,0.00
2018-03-06T03:36:37.425Z,0.00
2018-03-06T03:37:37.294Z,0.00
2018-03-06T03:38:37.169Z,0.00
2018-03-06T03:39:37.036Z,0.00
2018-03-06T03:40:36.906Z,0.00
2018-03-06T03:41:36.778Z,0.00
2018-03-06T03:42:36.644Z,0.00
2018-03-06T03:43:36.521Z,0.00
2018-03-06T03:44:36.386Z,0.00
2018-03-06T03:45:36.257Z,0.00
2018-03-06T03:46:36.127Z,0.00
2018-03-06T03:47:35.997Z,0.00
2018-03-06T03:48:35.865Z,0.00
2018-03-06T03:49:35.738Z,0.00
2018-03-06T03:50:35.623Z,0.00
2018-03-06T03:51:35.481Z,0.00
2018-03-06T03:52:35.352Z,0.00
2018-03-06T03:53:35.225Z,0.00
2018-03-06T03:54:35.091Z,0.00
2018-03-06T03:55:34.961Z,0.00
2018-03-06T03:56:34.826Z,0.00
2018-03-06T03:57:34.698Z,0.00
2018-03-06T03:58:34.568Z,0.00
2018-03-06T03:59:34.441Z,0.00
2018-03-06T04:00:34.308Z,0.00
2018-03-06T04:01:34.182Z,0.00
2018-03-06T04:02:34.047Z,0.00
2018-03-06T04:03:33.920Z,0.00
2018-03-06T04:04:33.789Z,0.00
2018-03-06T04:05:33.659Z,0.00
2018-03-06T04:06:33.530Z,0.00
2018-03-06T04:07:33.400Z,0.00
2018-03-06T04:08:33.269Z,0.00
2018-03-06T04:09:33.142Z,0.00
2018-03-06T04:10:33.008Z,0.00
2018-03-06T04:11:32.883Z,0.00
2018-03-06T04:12:32.748Z,0.00
2018-03-06T04:13:32.620Z,0.00
2018-03-06T04:14:32.490Z,0.00
2018-03-06T04:15:32.369Z,0.00
2018-03-06T04:16:32.231Z,0.00
2018-03-06T04:17:32.102Z,0.00
2018-03-06T04:18:31.973Z,0.00
2018-03-06T04:19:31.841Z,0.00
2018-03-06T04:20:31.710Z,0.00
2018-03-06T04:21:31.588Z,0.00
2018-03-06T04:22:31.453Z,0.00
2018-03-06T04:23:31.322Z,0.00
2018-03-06T04:24:31.191Z,0.00
2018-03-06T04:25:31.059Z,0.00
2018-03-06T04:26:30.931Z,0.00
2018-03-06T04:27:30.802Z,0.00
2018-03-06T04:28:30.670Z,0.00
2018-03-06T04:29:30.539Z,0.00
2018-03-06T04:30:30.408Z,0.00
2018-03-06T04:31:30.277Z,0.00
2018-03-06T04:32:30.147Z,0.00
2018-03-06T04:33:30.018Z,0.00
2018-03-06T04:34:29.889Z,0.00
2018-03-06T04:35:29.757Z,0.00
2018-03-06T04:36:29.627Z,0.00
2018-03-06T04:37:29.497Z,0.00
2018-03-06T04:38:29.366Z,0.00
2018-03-06T04:39:29.236Z,0.00
2018-03-06T04:40:29.104Z,0.00
2018-03-06T04:41:28.978Z,0.00
2018-03-06T04:42:28.843Z,0.00
2018-03-06T04:43:28.715Z,0.00
2018-03-06T04:44:28.583Z,0.00
2018-03-06T04:45:28.453Z,0.00
2018-03-06T04:46:28.343Z,0.00
2018-03-06T04:47:28.196Z,0.00
2018-03-06T04:48:28.063Z,0.00
2018-03-06T04:49:27.931Z,0.00
2018-03-06T04:50:27.802Z,0.00
2018-03-06T04:51:27.677Z,0.00
2018-03-06T04:52:27.540Z,0.00
2018-03-06T04:53:27.409Z,0.00
2018-03-06T04:54:27.280Z,0.00
2018-03-06T04:55:27.151Z,0.00
2018-03-06T04:56:27.019Z,0.00
2018-03-06T04:57:26.889Z,0.00
2018-03-06T04:58:26.759Z,0.00
2018-03-06T04:59:26.633Z,0.00
2018-03-06T05:00:26.495Z,0.00
2018-03-06T05:01:26.367Z,0.00
2018-03-06T05:02:26.268Z,0.00
2018-03-06T05:03:26.108Z,0.00
2018-03-06T05:04:25.974Z,0.00
2018-03-06T05:05:25.842Z,0.00
2018-03-06T05:06:25.712Z,0.00
2018-03-06T05:07:25.587Z,0.00
2018-03-06T05:08:25.453Z,0.00
2018-03-06T05:09:25.330Z,0.00
2018-03-06T05:10:25.192Z,0.00
2018-03-06T05:11:25.061Z,0.00
2018-03-06T05:12:24.930Z,0.00
2018-03-06T05:13:24.801Z,0.00
2018-03-06T05:14:24.672Z,0.00
2018-03-06T05:15:24.542Z,0.00
2018-03-06T05:16:24.409Z,0.00
2018-03-06T05:17:24.281Z,0.00
2018-03-06T05:18:24.150Z,0.00
2018-03-06T05:19:24.017Z,0.00
2018-03-06T05:20:23.887Z,0.00
2018-03-06T05:21:23.758Z,0.00
2018-03-06T05:22:23.627Z,0.00
2018-03-06T05:23:23.498Z,0.00
2018-03-06T05:24:23.364Z,0.00
2018-03-06T05:25:24.860Z,0.00
2018-03-06T05:26:23.591Z,0.00
2018-03-06T05:27:22.976Z,0.00
2018-03-06T05:28:22.922Z,0.00
2018-03-06T05:29:22.717Z,4.00
2018-03-06T05:30:22.583Z,4.00
2018-03-06T05:31:22.454Z,4.00
2018-03-06T05:32:22.325Z,4.00
2018-03-06T05:33:22.196Z,8.00
2018-03-06T05:34:22.065Z,4.00
2018-03-06T05:35:21.939Z,8.00
2018-03-06T05:36:21.884Z,8.00
2018-03-06T05:37:21.673Z,8.00
2018-03-06T05:38:21.542Z,12.00
2018-03-06T05:39:21.412Z,12.00
2018-03-06T05:40:21.284Z,12.00
2018-03-06T05:41:21.150Z,16.00
2018-03-06T05:42:21.018Z,16.00
2018-03-06T05:43:20.889Z,20.00
2018-03-06T05:44:20.782Z,24.00
2018-03-06T05:45:20.629Z,32.00
2018-03-06T05:46:20.632Z,32.00
2018-03-06T05:47:20.666Z,40.00
2018-03-06T05:48:20.237Z,44.00
2018-03-06T05:49:20.109Z,48.00
2018-03-06T05:50:19.980Z,52.00
2018-03-06T05:51:19.849Z,56.00
2018-03-06T05:52:19.721Z,60.00
2018-03-06T05:53:19.586Z,68.00
2018-03-06T05:54:19.457Z,72.00
2018-03-06T05:55:19.327Z,80.00
2018-03-06T05:56:19.224Z,88.00
2018-03-06T05:57:19.067Z,96.00
2018-03-06T05:58:18.937Z,104.00
2018-03-06T05:59:18.809Z,112.00
2018-03-06T06:00:18.677Z,120.00
2018-03-06T06:01:18.547Z,128.00
2018-03-06T06:02:18.418Z,136.00
2018-03-06T06:03:18.287Z,148.00
2018-03-06T06:04:18.155Z,160.00
2018-03-06T06:05:18.025Z,172.00
2018-03-06T06:06:17.900Z,180.00
2018-03-06T06:07:17.767Z,196.00
2018-03-06T06:08:17.637Z,212.00
2018-03-06T06:09:17.509Z,228.00
2018-03-06T06:10:17.376Z,244.00
2018-03-06T06:11:17.245Z,264.00
2018-03-06T06:12:17.118Z,280.00
2018-03-06T06:13:16.987Z,300.00
2018-03-06T06:14:16.853Z,320.00
2018-03-06T06:15:16.731Z,340.00
2018-03-06T06:16:16.594Z,364.00
2018-03-06T06:17:16.466Z,384.00
2018-03-06T06:18:16.336Z,404.00
2018-03-06T06:19:16.219Z,428.00
2018-03-06T06:20:16.075Z,452.00
2018-03-06T06:21:15.955Z,476.00
2018-03-06T06:22:15.814Z,492.00
2018-03-06T06:23:15.689Z,516.00
2018-03-06T06:24:15.558Z,536.00
2018-03-06T06:25:15.443Z,560.00
2018-03-06T06:26:15.298Z,580.00
2018-03-06T06:27:15.167Z,600.00
2018-03-06T06:28:15.039Z,620.00
2018-03-06T06:29:14.906Z,632.00
2018-03-06T06:30:14.775Z,652.00
2018-03-06T06:31:14.648Z,668.00
2018-03-06T06:32:14.518Z,692.00
2018-03-06T06:33:14.388Z,708.00
2018-03-06T06:34:14.259Z,724.00
2018-03-06T06:35:14.129Z,744.00
2018-03-06T06:36:13.996Z,764.00
2018-03-06T06:37:13.866Z,788.00
2018-03-06T06:38:13.742Z,812.00
2018-03-06T06:39:13.680Z,836.00
2018-03-06T06:40:13.477Z,864.00
2018-03-06T06:41:13.352Z,888.00
2018-03-06T06:42:13.220Z,912.00
2018-03-06T06:43:13.086Z,936.00
2018-03-06T06:44:12.960Z,816.00
2018-03-06T06:45:12.828Z,844.00
2018-03-06T06:46:12.700Z,868.00
2018-03-06T06:47:12.570Z,896.00
2018-03-06T06:48:12.439Z,920.00
2018-03-06T06:49:12.311Z,944.00
2018-03-06T06:50:12.182Z,960.00
2018-03-06T06:51:12.060Z,988.00
2018-03-06T06:52:11.922Z,1020.00
2018-03-06T06:53:11.790Z,1048.00
2018-03-06T06:54:11.663Z,1076.00
2018-03-06T06:55:11.533Z,1100.00
2018-03-06T06:56:11.403Z,1128.00
2018-03-06T06:57:11.274Z,1156.00
2018-03-06T06:58:11.144Z,1180.00
2018-03-06T06:59:11.014Z,1208.00
2018-03-06T07:00:10.886Z,1228.00
2018-03-06T07:01:10.753Z,1260.00
2018-03-06T07:02:10.626Z,1288.00
2018-03-06T07:03:10.497Z,1320.00
2018-03-06T07:04:10.365Z,1352.00
2018-03-06T07:05:10.237Z,1384.00
2018-03-06T07:06:10.108Z,1420.00
2018-03-06T07:07:09.977Z,1452.00
2018-03-06T07:08:09.847Z,1488.00
2018-03-06T07:09:09.716Z,1520.00
2018-03-06T07:10:09.586Z,1552.00
2018-03-06T07:11:09.456Z,1592.00
2018-03-06T07:12:09.324Z,1628.00
2018-03-06T07:13:09.199Z,1664.00
2018-03-06T07:14:09.066Z,1708.00
2018-03-06T07:15:08.938Z,1744.00
2018-03-06T07:16:08.811Z,1772.00
2018-03-06T07:17:08.678Z,1804.00
2018-03-06T07:18:08.546Z,1844.00
2018-03-06T07:19:08.416Z,1888.00
2018-03-06T07:20:08.288Z,1924.00
2018-03-06T07:21:08.155Z,1972.00
2018-03-06T07:22:08.029Z,2020.00
2018-03-06T07:23:07.897Z,2060.00
2018-03-06T07:24:07.768Z,2108.00
2018-03-06T07:25:07.639Z,2164.00
2018-03-06T07:26:07.508Z,2216.00
2018-03-06T07:27:07.379Z,2280.00
2018-03-06T07:28:07.248Z,2336.00
2018-03-06T07:29:07.121Z,2392.00
2018-03-06T07:30:06.989Z,2444.00
2018-03-06T07:31:06.863Z,2492.00
2018-03-06T07:32:06.731Z,2540.00
2018-03-06T07:33:06.600Z,2584.00
2018-03-06T07:34:06.473Z,2640.00
2018-03-06T07:35:06.345Z,2688.00
2018-03-06T07:36:06.214Z,2732.00
2018-03-06T07:37:06.086Z,2768.00
2018-03-06T07:38:05.972Z,2820.00
2018-03-06T07:39:05.833Z,2864.00
2018-03-06T07:40:05.695Z,2924.00
2018-03-06T07:41:05.566Z,2964.00
2018-03-06T07:42:05.440Z,2980.00
2018-03-06T07:43:05.309Z,3012.00
2018-03-06T07:44:05.178Z,3064.00
2018-03-06T07:45:05.052Z,3096.00
2018-03-06T07:46:04.916Z,3112.00
2018-03-06T07:47:04.789Z,3144.00
2018-03-06T07:48:04.667Z,3176.00
2018-03-06T07:49:04.528Z,3208.00
2018-03-06T07:50:04.399Z,3248.00
2018-03-06T07:51:04.274Z,3280.00
2018-03-06T07:52:04.138Z,3304.00
2018-03-06T07:53:04.009Z,3316.00
2018-03-06T07:54:03.883Z,3340.00
2018-03-06T07:55:03.753Z,3344.00
2018-03-06T07:56:03.623Z,3352.00
2018-03-06T07:57:03.494Z,3352.00
2018-03-06T07:58:03.367Z,3352.00
2018-03-06T07:59:03.236Z,3360.00
2018-03-06T08:00:03.102Z,3388.00
2018-03-06T08:01:02.977Z,3404.00
2018-03-06T08:02:02.848Z,3420.00
2018-03-06T08:03:02.716Z,3444.00
2018-03-06T08:04:02.587Z,3456.00
2018-03-06T08:05:02.465Z,3484.00
2018-03-06T08:06:02.329Z,3520.00
2018-03-06T08:07:02.199Z,3544.00
2018-03-06T08:08:02.069Z,3564.00
2018-03-06T08:09:01.941Z,3588.00
2018-03-06T08:10:01.812Z,3596.00
2018-03-06T08:11:01.684Z,3632.00
2018-03-06T08:12:01.601Z,3660.00
2018-03-06T08:13:01.426Z,3676.00
2018-03-06T08:14:01.297Z,3684.00
2018-03-06T08:15:01.167Z,3716.00
2018-03-06T08:16:01.039Z,3740.00
2018-03-06T08:17:00.951Z,3764.00
2018-03-06T08:18:00.782Z,3748.00
2018-03-06T08:19:00.654Z,3780.00
2018-03-06T08:20:00.522Z,3824.00
2018-03-06T08:21:00.399Z,3880.00
2018-03-06T08:22:00.267Z,3904.00
2018-03-06T08:23:00.138Z,3912.00
2018-03-06T08:24:00.009Z,3928.00
2018-03-06T08:24:59.879Z,3908.00
2018-03-06T08:25:59.750Z,3896.00
2018-03-06T08:26:59.623Z,3972.00
2018-03-06T08:27:59.493Z,3944.00
2018-03-06T08:28:59.364Z,4016.00
2018-03-06T08:29:59.236Z,4048.00
2018-03-06T08:30:59.108Z,4008.00
2018-03-06T08:31:58.981Z,4016.00
2018-03-06T08:32:58.849Z,4028.00
2018-03-06T08:33:58.720Z,4100.00
2018-03-06T08:34:58.593Z,4152.00
2018-03-06T08:35:58.468Z,4196.00
2018-03-06T08:36:58.337Z,4244.00
2018-03-06T08:37:58.207Z,4296.00
2018-03-06T08:38:58.081Z,4372.00
2018-03-06T08:39:57.951Z,4448.00
2018-03-06T08:40:57.823Z,4516.00
2018-03-06T08:41:57.695Z,4636.00
2018-03-06T08:42:57.568Z,4776.00
2018-03-06T08:43:57.440Z,4932.00
2018-03-06T08:44:57.310Z,5044.00
2018-03-06T08:45:57.182Z,5076.00
2018-03-06T08:46:57.056Z,5092.00
2018-03-06T08:47:56.928Z,5092.00
2018-03-06T08:48:56.801Z,5120.00
2018-03-06T08:49:56.673Z,5248.00
2018-03-06T08:50:56.551Z,5360.00
2018-03-06T08:51:56.417Z,5360.00
2018-03-06T08:52:56.289Z,5440.00
2018-03-06T08:53:56.163Z,5476.00
2018-03-06T08:54:56.038Z,5480.00
2018-03-06T08:55:55.909Z,5364.00
2018-03-06T08:56:55.786Z,5216.00
2018-03-06T08:57:55.656Z,5284.00
2018-03-06T08:58:55.528Z,5400.00
2018-03-06T08:59:55.404Z,5620.00
2018-03-06T09:00:55.273Z,5820.00
2018-03-06T09:01:55.148Z,5868.00
2018-03-06T09:02:55.027Z,5860.00
2018-03-06T09:03:54.895Z,5832.00
2018-03-06T09:04:54.768Z,5784.00
2018-03-06T09:05:54.641Z,5696.00
2018-03-06T09:06:54.515Z,5608.00
2018-03-06T09:07:54.390Z,5444.00
2018-03-06T09:08:54.262Z,5576.00
2018-03-06T09:09:54.145Z,5568.00
2018-03-06T09:10:54.011Z,5920.00
2018-03-06T09:11:53.886Z,6280.00
2018-03-06T09:12:53.757Z,6136.00
2018-03-06T09:13:53.633Z,6032.00
2018-03-06T09:14:53.503Z,5848.00
2018-03-06T09:15:53.378Z,5856.00
2018-03-06T09:16:53.254Z,5856.00
2018-03-06T09:17:53.128Z,5908.00
2018-03-06T09:18:53.004Z,6228.00
2018-03-06T09:19:52.876Z,6104.00
2018-03-06T09:20:52.751Z,6232.00
2018-03-06T09:21:52.630Z,6440.00
2018-03-06T09:22:52.501Z,6604.00
2018-03-06T09:23:52.375Z,6512.00
2018-03-06T09:24:52.249Z,6404.00
2018-03-06T09:25:52.120Z,6368.00
2018-03-06T09:26:52.004Z,6488.00
2018-03-06T09:27:51.869Z,6628.00
2018-03-06T09:28:51.745Z,6744.00
2018-03-06T09:29:51.616Z,6732.00
2018-03-06T09:30:51.503Z,6580.00
2018-03-06T09:31:51.386Z,6532.00
2018-03-06T09:32:51.240Z,6448.00
2018-03-06T09:33:51.114Z,6336.00
2018-03-06T09:34:50.990Z,6340.00
2018-03-06T09:35:50.860Z,6280.00
2018-03-06T09:36:50.736Z,6144.00
2018-03-06T09:37:50.611Z,5948.00
2018-03-06T09:38:50.480Z,5836.00
2018-03-06T09:39:50.355Z,5808.00
2018-03-06T09:40:50.228Z,5768.00
2018-03-06T09:41:50.102Z,5712.00
2018-03-06T09:42:49.976Z,5560.00
2018-03-06T09:43:49.849Z,5444.00
2018-03-06T09:44:49.723Z,5400.00
2018-03-06T09:45:49.596Z,5460.00
2018-03-06T09:46:49.469Z,5512.00
2018-03-06T09:47:49.344Z,5524.00
2018-03-06T09:48:49.215Z,5480.00
2018-03-06T09:49:49.092Z,5424.00
2018-03-06T09:50:48.964Z,5480.00
2018-03-06T09:51:48.839Z,5616.00
2018-03-06T09:52:48.711Z,5708.00
2018-03-06T09:53:48.587Z,5792.00
2018-03-06T09:54:48.460Z,5820.00
2018-03-06T09:55:48.330Z,5744.00
2018-03-06T09:56:48.205Z,5664.00
2018-03-06T09:57:48.081Z,5556.00
2018-03-06T09:58:47.953Z,5512.00
2018-03-06T09:59:47.827Z,5488.00
2018-03-06T10:00:47.701Z,5492.00
2018-03-06T10:01:47.571Z,5516.00
2018-03-06T10:02:47.448Z,5596.00
2018-03-06T10:03:47.320Z,5688.00
2018-03-06T10:04:47.191Z,5764.00
2018-03-06T10:05:47.064Z,5784.00
2018-03-06T10:06:46.938Z,5832.00
2018-03-06T10:07:46.811Z,5852.00
2018-03-06T10:08:46.683Z,5832.00
2018-03-06T10:09:46.555Z,5876.00
2018-03-06T10:10:46.429Z,5984.00
2018-03-06T10:11:46.304Z,6064.00
2018-03-06T10:12:46.183Z,6144.00
2018-03-06T10:13:46.056Z,6228.00
2018-03-06T10:14:45.923Z,6316.00
2018-03-06T10:15:45.796Z,6408.00
2018-03-06T10:16:45.674Z,6556.00
2018-03-06T10:17:45.543Z,6788.00
2018-03-06T10:18:45.416Z,6968.00
2018-03-06T10:19:45.286Z,7184.00
2018-03-06T10:20:45.160Z,7288.00
2018-03-06T10:21:45.032Z,7388.00
2018-03-06T10:22:44.906Z,7544.00
2018-03-06T10:23:44.780Z,7696.00
2018-03-06T10:24:44.655Z,7788.00
2018-03-06T10:25:44.528Z,7696.00
2018-03-06T10:26:44.401Z,7664.00
2018-03-06T10:27:44.276Z,7656.00
2018-03-06T10:28:44.150Z,7708.00
2018-03-06T10:29:44.028Z,7772.00
2018-03-06T10:30:43.897Z,7908.00
2018-03-06T10:31:43.771Z,8012.00
2018-03-06T10:32:43.645Z,7964.00
2018-03-06T10:33:43.522Z,7868.00
2018-03-06T10:34:43.393Z,7780.00
2018-03-06T10:35:43.318Z,7624.00
2018-03-06T10:36:43.142Z,7512.00
2018-03-06T10:37:43.016Z,7392.00
2018-03-06T10:38:42.891Z,7212.00
2018-03-06T10:39:42.765Z,7104.00
2018-03-06T10:40:42.636Z,7104.00
2018-03-06T10:41:42.513Z,7052.00
2018-03-06T10:42:42.388Z,6956.00
2018-03-06T10:43:42.259Z,6972.00
2018-03-06T10:44:42.136Z,7040.00
2018-03-06T10:45:42.011Z,7136.00
2018-03-06T10:46:41.887Z,7208.00
2018-03-06T10:47:41.757Z,7252.00
2018-03-06T10:48:41.633Z,7244.00
2018-03-06T10:49:41.511Z,7208.00
2018-03-06T10:50:41.382Z,7120.00
2018-03-06T10:51:41.256Z,6988.00
2018-03-06T10:52:41.142Z,6744.00
2018-03-06T10:53:41.005Z,6532.00
2018-03-06T10:54:40.884Z,6456.00
2018-03-06T10:55:40.753Z,6472.00
2018-03-06T10:56:40.628Z,6504.00
2018-03-06T10:57:40.500Z,6496.00
2018-03-06T10:58:40.373Z,6452.00
2018-03-06T10:59:40.249Z,6476.00
2018-03-06T11:00:40.125Z,6500.00
2018-03-06T11:01:39.997Z,6448.00
2018-03-06T11:02:39.873Z,6268.00
2018-03-06T11:03:39.746Z,5984.00
2018-03-06T11:04:39.620Z,5664.00
2018-03-06T11:05:39.495Z,5452.00
2018-03-06T11:06:39.367Z,5320.00
2018-03-06T11:07:39.241Z,5224.00
2018-03-06T11:08:39.117Z,5192.00
2018-03-06T11:09:38.990Z,5228.00
2018-03-06T11:10:38.863Z,5324.00
2018-03-06T11:11:38.738Z,5472.00
2018-03-06T11:12:38.614Z,5592.00
2018-03-06T11:13:38.488Z,5700.00
2018-03-06T11:14:38.362Z,5836.00
2018-03-06T11:15:38.235Z,5976.00
2018-03-06T11:16:38.110Z,6116.00
2018-03-06T11:17:37.983Z,6124.00
2018-03-06T11:18:37.860Z,6120.00
2018-03-06T11:19:37.730Z,6080.00
2018-03-06T11:20:37.601Z,6040.00
2018-03-06T11:21:37.479Z,6088.00
2018-03-06T11:22:37.350Z,6260.00
2018-03-06T11:23:37.225Z,6408.00
2018-03-06T11:24:37.095Z,6528.00
2018-03-06T11:25:36.968Z,6556.00
2018-03-06T11:26:36.841Z,6692.00
2018-03-06T11:27:36.714Z,6844.00
2018-03-06T11:28:36.590Z,6924.00
2018-03-06T11:29:36.461Z,7028.00
2018-03-06T11:30:36.334Z,7124.00
2018-03-06T11:31:36.205Z,7148.00
2018-03-06T11:32:36.078Z,7140.00
2018-03-06T11:33:35.956Z,7108.00
2018-03-06T11:34:35.823Z,7168.00
2018-03-06T11:35:35.695Z,7276.00
2018-03-06T11:36:35.567Z,7384.00
2018-03-06T11:37:35.440Z,7532.00
2018-03-06T11:38:35.317Z,7600.00
2018-03-06T11:39:35.185Z,7600.00
2018-03-06T11:40:35.058Z,7636.00
2018-03-06T11:41:34.931Z,7568.00
2018-03-06T11:42:34.804Z,7656.00
2018-03-06T11:43:34.676Z,7848.00
2018-03-06T11:44:34.547Z,7916.00
2018-03-06T11:45:34.421Z,7996.00
2018-03-06T11:46:34.295Z,7972.00
2018-03-06T11:47:34.165Z,7992.00
2018-03-06T11:48:34.041Z,8004.00
2018-03-06T11:49:33.912Z,8000.00
2018-03-06T11:50:33.795Z,7988.00
2018-03-06T11:51:33.660Z,7884.00
2018-03-06T11:52:33.531Z,7808.00
2018-03-06T11:53:33.404Z,7720.00
2018-03-06T11:54:33.279Z,7684.00
2018-03-06T11:55:33.156Z,7608.00
2018-03-06T11:56:33.022Z,7516.00
2018-03-06T11:57:32.896Z,7416.00
2018-03-06T11:58:32.772Z,7264.00
2018-03-06T11:59:32.642Z,7108.00
2018-03-06T12:00:32.516Z,6940.00
2018-03-06T12:01:32.398Z,6764.00
2018-03-06T12:02:32.259Z,6548.00
2018-03-06T12:03:32.136Z,6364.00
2018-03-06T12:04:32.010Z,6196.00
2018-03-06T12:05:31.883Z,6004.00
2018-03-06T12:06:31.752Z,5820.00
2018-03-06T12:07:31.627Z,5636.00
2018-03-06T12:08:31.502Z,5440.00
2018-03-06T12:09:31.374Z,5264.00
2018-03-06T12:10:31.246Z,5128.00
2018-03-06T12:11:31.118Z,5016.00
2018-03-06T12:12:30.993Z,4896.00
2018-03-06T12:13:30.866Z,4776.00
2018-03-06T12:14:30.740Z,4652.00
2018-03-06T12:15:30.614Z,4512.00
2018-03-06T12:16:30.485Z,4376.00
2018-03-06T12:17:30.361Z,4240.00
2018-03-06T12:18:30.233Z,4144.00
2018-03-06T12:19:30.104Z,4080.00
2018-03-06T12:20:29.979Z,4008.00
2018-03-06T12:21:29.914Z,3936.00
2018-03-06T12:22:29.725Z,3892.00
2018-03-06T12:23:29.601Z,3852.00
2018-03-06T12:24:29.470Z,3724.00
2018-03-06T12:25:29.345Z,3676.00
2018-03-06T12:26:29.219Z,3548.00
2018-03-06T12:27:29.095Z,3624.00
2018-03-06T12:28:28.965Z,3628.00
2018-03-06T12:29:28.841Z,3632.00
2018-03-06T12:30:28.710Z,3632.00
2018-03-06T12:31:28.583Z,3628.00
2018-03-06T12:32:28.481Z,3596.00
2018-03-06T12:33:28.331Z,3580.00
2018-03-06T12:34:28.202Z,3540.00
2018-03-06T12:35:28.075Z,3452.00
2018-03-06T12:36:27.949Z,3340.00
2018-03-06T12:37:27.818Z,3284.00